sensor_id;sensor_type;location;lat;lon;timestamp;pressure;altitude;pressure_sealevel;temperature;humidity
52719;BME280;38616;42.140;24.760;2022-08-21T00:02:18;98907.66;;;23.51;68.62
52719;BME280;38616;42.140;24.760;2022-08-21T00:04:45;98920.84;;;23.65;67.65
52719;BME280;38616;42.140;24.760;2022-08-21T00:07:11;98927.22;;;23.73;68.87
52719;BME280;38616;42.140;24.760;2022-08-21T00:09:36;98937.03;;;23.59;69.71
52719;BME280;38616;42.140;24.760;2022-08-21T00:12:02;98920.06;;;23.68;70.01
52719;BME280;38616;42.140;24.760;2022-08-21T00:14:28;98909.03;;;23.79;67.36
52719;BME280;38616;42.140;24.760;2022-08-21T00:16:54;98918.44;;;23.60;68.18
52719;BME280;38616;42.140;24.760;2022-08-21T00:19:19;98900.63;;;23.61;68.34
52719;BME280;38616;42.140;24.760;2022-08-21T00:21:44;98895.56;;;23.78;68.08
52719;BME280;38616;42.140;24.760;2022-08-21T00:24:11;98903.09;;;23.77;68.10
52719;BME280;38616;42.140;24.760;2022-08-21T00:26:37;98901.81;;;23.64;68.26
52719;BME280;38616;42.140;24.760;2022-08-21T00:29:03;98903.75;;;23.59;66.83
52719;BME280;38616;42.140;24.760;2022-08-21T00:31:28;98896.50;;;23.37;67.69
52719;BME280;38616;42.140;24.760;2022-08-21T00:33:54;98892.16;;;23.39;69.03
52719;BME280;38616;42.140;24.760;2022-08-21T00:36:19;98892.22;;;23.50;67.93
52719;BME280;38616;42.140;24.760;2022-08-21T00:38:45;98917.56;;;23.49;69.07
52719;BME280;38616;42.140;24.760;2022-08-21T00:41:11;98896.25;;;23.64;69.86
52719;BME280;38616;42.140;24.760;2022-08-21T00:43:38;98889.91;;;23.59;69.30
52719;BME280;38616;42.140;24.760;2022-08-21T00:46:05;98870.84;;;23.54;69.86
52719;BME280;38616;42.140;24.760;2022-08-21T00:48:32;98864.66;;;23.75;68.94
52719;BME280;38616;42.140;24.760;2022-08-21T00:51:03;98859.94;;;23.87;66.92
52719;BME280;38616;42.140;24.760;2022-08-21T00:53:30;98870.94;;;23.69;67.56
52719;BME280;38616;42.140;24.760;2022-08-21T00:55:57;98873.81;;;23.80;66.91
52719;BME280;38616;42.140;24.760;2022-08-21T00:58:24;98887.53;;;23.58;67.89
52719;BME280;38616;42.140;24.760;2022-08-21T01:00:52;98884.31;;;23.52;68.13
52719;BME280;38616;42.140;24.760;2022-08-21T01:03:22;98890.81;;;23.74;68.78
52719;BME280;38616;42.140;24.760;2022-08-21T01:05:48;98884.50;;;23.81;68.80
52719;BME280;38616;42.140;24.760;2022-08-21T01:08:15;98887.56;;;23.65;69.29
52719;BME280;38616;42.140;24.760;2022-08-21T01:10:42;98879.25;;;23.65;69.75
52719;BME280;38616;42.140;24.760;2022-08-21T01:13:11;98861.56;;;23.91;68.66
52719;BME280;38616;42.140;24.760;2022-08-21T01:15:40;98861.97;;;23.94;68.85
52719;BME280;38616;42.140;24.760;2022-08-21T01:18:09;98857.25;;;23.98;68.27
52719;BME280;38616;42.140;24.760;2022-08-21T01:20:37;98845.44;;;24.08;67.57
52719;BME280;38616;42.140;24.760;2022-08-21T01:23:05;98843.06;;;24.14;67.84
52719;BME280;38616;42.140;24.760;2022-08-21T01:25:32;98851.69;;;23.98;68.51
52719;BME280;38616;42.140;24.760;2022-08-21T01:28:09;98845.31;;;23.86;67.70
52719;BME280;38616;42.140;24.760;2022-08-21T01:30:37;98836.53;;;23.77;69.07
52719;BME280;38616;42.140;24.760;2022-08-21T01:33:04;98830.59;;;23.75;69.14
52719;BME280;38616;42.140;24.760;2022-08-21T01:35:30;98827.81;;;23.71;68.72
52719;BME280;38616;42.140;24.760;2022-08-21T01:37:55;98823.44;;;23.70;68.24
52719;BME280;38616;42.140;24.760;2022-08-21T01:40:21;98829.81;;;23.74;68.46
52719;BME280;38616;42.140;24.760;2022-08-21T01:42:47;98832.63;;;23.85;68.54
52719;BME280;38616;42.140;24.760;2022-08-21T01:45:14;98835.00;;;23.87;68.42
52719;BME280;38616;42.140;24.760;2022-08-21T01:47:40;98837.00;;;23.94;68.63
52719;BME280;38616;42.140;24.760;2022-08-21T01:50:08;98846.03;;;23.76;68.24
52719;BME280;38616;42.140;24.760;2022-08-21T01:52:35;98845.69;;;23.85;68.70
52719;BME280;38616;42.140;24.760;2022-08-21T01:55:01;98858.34;;;23.79;68.27
52719;BME280;38616;42.140;24.760;2022-08-21T01:57:27;98868.72;;;23.96;68.82
52719;BME280;38616;42.140;24.760;2022-08-21T01:59:52;98892.03;;;23.88;68.84
52719;BME280;38616;42.140;24.760;2022-08-21T02:02:18;98918.84;;;23.62;68.66
52719;BME280;38616;42.140;24.760;2022-08-21T02:04:43;98927.09;;;23.55;69.45
52719;BME280;38616;42.140;24.760;2022-08-21T02:07:08;98922.47;;;23.73;68.58
52719;BME280;38616;42.140;24.760;2022-08-21T02:09:34;98926.81;;;23.67;68.64
52719;BME280;38616;42.140;24.760;2022-08-21T02:11:59;98920.03;;;23.61;68.03
52719;BME280;38616;42.140;24.760;2022-08-21T02:14:25;98921.78;;;22.90;69.95
52719;BME280;38616;42.140;24.760;2022-08-21T02:16:50;98912.53;;;22.75;70.51
52719;BME280;38616;42.140;24.760;2022-08-21T02:19:16;98908.94;;;22.75;69.69
52719;BME280;38616;42.140;24.760;2022-08-21T02:21:43;98911.78;;;22.78;69.18
52719;BME280;38616;42.140;24.760;2022-08-21T02:24:10;98915.91;;;22.57;69.45
52719;BME280;38616;42.140;24.760;2022-08-21T02:26:37;98927.28;;;22.49;70.21
52719;BME280;38616;42.140;24.760;2022-08-21T02:29:04;98925.78;;;22.58;70.28
52719;BME280;38616;42.140;24.760;2022-08-21T02:31:30;98930.94;;;22.60;70.57
52719;BME280;38616;42.140;24.760;2022-08-21T02:33:56;98939.56;;;22.55;71.15
52719;BME280;38616;42.140;24.760;2022-08-21T02:36:22;98942.44;;;22.62;71.17
52719;BME280;38616;42.140;24.760;2022-08-21T02:38:47;98950.19;;;22.83;70.73
52719;BME280;38616;42.140;24.760;2022-08-21T02:41:17;98948.09;;;23.11;69.98
52719;BME280;38616;42.140;24.760;2022-08-21T02:43:44;98943.91;;;22.86;69.92
52719;BME280;38616;42.140;24.760;2022-08-21T02:46:12;98949.97;;;23.03;70.68
52719;BME280;38616;42.140;24.760;2022-08-21T02:48:38;98939.94;;;22.87;70.25
52719;BME280;38616;42.140;24.760;2022-08-21T02:51:07;98941.47;;;22.81;70.25
52719;BME280;38616;42.140;24.760;2022-08-21T02:53:34;98931.81;;;22.68;70.40
52719;BME280;38616;42.140;24.760;2022-08-21T02:56:02;98925.31;;;22.53;71.33
52719;BME280;38616;42.140;24.760;2022-08-21T02:58:35;98939.97;;;22.53;71.64
52719;BME280;38616;42.140;24.760;2022-08-21T03:01:01;98941.88;;;22.49;71.49
52719;BME280;38616;42.140;24.760;2022-08-21T03:03:28;98932.00;;;22.18;71.99
52719;BME280;38616;42.140;24.760;2022-08-21T03:05:54;98932.97;;;22.02;73.37
52719;BME280;38616;42.140;24.760;2022-08-21T03:08:20;98929.88;;;22.07;73.59
52719;BME280;38616;42.140;24.760;2022-08-21T03:10:47;98933.06;;;22.40;73.28
52719;BME280;38616;42.140;24.760;2022-08-21T03:13:14;98936.38;;;22.53;72.54
52719;BME280;38616;42.140;24.760;2022-08-21T03:15:41;98948.09;;;22.73;71.91
52719;BME280;38616;42.140;24.760;2022-08-21T03:18:08;98951.84;;;22.92;70.73
52719;BME280;38616;42.140;24.760;2022-08-21T03:20:35;98953.22;;;23.09;71.05
52719;BME280;38616;42.140;24.760;2022-08-21T03:23:02;98944.41;;;22.99;70.99
52719;BME280;38616;42.140;24.760;2022-08-21T03:25:29;98942.00;;;22.60;71.59
52719;BME280;38616;42.140;24.760;2022-08-21T03:27:57;98941.31;;;22.36;72.99
52719;BME280;38616;42.140;24.760;2022-08-21T03:30:23;98946.53;;;22.76;72.26
52719;BME280;38616;42.140;24.760;2022-08-21T03:32:48;98942.25;;;22.82;71.56
52719;BME280;38616;42.140;24.760;2022-08-21T03:35:14;98944.78;;;22.98;70.87
52719;BME280;38616;42.140;24.760;2022-08-21T03:37:39;98936.94;;;22.66;71.15
52719;BME280;38616;42.140;24.760;2022-08-21T03:40:07;98935.72;;;22.63;72.11
52719;BME280;38616;42.140;24.760;2022-08-21T03:42:33;98943.50;;;22.88;71.09
52719;BME280;38616;42.140;24.760;2022-08-21T03:44:58;98945.94;;;22.93;71.46
52719;BME280;38616;42.140;24.760;2022-08-21T03:47:24;98952.88;;;23.17;71.14
52719;BME280;38616;42.140;24.760;2022-08-21T03:49:50;98960.00;;;23.15;70.79
52719;BME280;38616;42.140;24.760;2022-08-21T03:52:16;98952.09;;;23.17;71.30
52719;BME280;38616;42.140;24.760;2022-08-21T03:54:42;98954.69;;;23.40;70.49
52719;BME280;38616;42.140;24.760;2022-08-21T03:57:08;98952.31;;;23.39;70.46
52719;BME280;38616;42.140;24.760;2022-08-21T03:59:35;98962.72;;;23.53;69.65
52719;BME280;38616;42.140;24.760;2022-08-21T04:02:03;98966.28;;;23.53;70.32
52719;BME280;38616;42.140;24.760;2022-08-21T04:04:29;98960.66;;;23.42;71.20
52719;BME280;38616;42.140;24.760;2022-08-21T04:06:56;98959.84;;;23.38;71.37
52719;BME280;38616;42.140;24.760;2022-08-21T04:09:22;98965.84;;;23.48;71.76
52719;BME280;38616;42.140;24.760;2022-08-21T04:11:48;98959.41;;;23.36;71.91
52719;BME280;38616;42.140;24.760;2022-08-21T04:14:13;98957.94;;;23.50;71.53
52719;BME280;38616;42.140;24.760;2022-08-21T04:16:40;98959.47;;;23.40;71.61
52719;BME280;38616;42.140;24.760;2022-08-21T04:19:07;98965.34;;;23.35;71.68
52719;BME280;38616;42.140;24.760;2022-08-21T04:21:32;98960.13;;;23.26;72.30
52719;BME280;38616;42.140;24.760;2022-08-21T04:23:58;98960.41;;;23.17;72.75
52719;BME280;38616;42.140;24.760;2022-08-21T04:26:24;98968.72;;;23.17;71.12
52719;BME280;38616;42.140;24.760;2022-08-21T04:28:50;98969.09;;;23.15;71.51
52719;BME280;38616;42.140;24.760;2022-08-21T04:31:16;98958.41;;;23.17;72.42
52719;BME280;38616;42.140;24.760;2022-08-21T04:33:41;98962.53;;;23.31;72.04
52719;BME280;38616;42.140;24.760;2022-08-21T04:36:07;98955.59;;;23.10;72.18
52719;BME280;38616;42.140;24.760;2022-08-21T04:38:33;98954.34;;;23.04;73.03
52719;BME280;38616;42.140;24.760;2022-08-21T04:40:59;98940.06;;;23.02;72.84
52719;BME280;38616;42.140;24.760;2022-08-21T04:43:25;98945.41;;;23.22;71.32
52719;BME280;38616;42.140;24.760;2022-08-21T04:45:51;98948.00;;;23.03;71.69
52719;BME280;38616;42.140;24.760;2022-08-21T04:48:19;98943.47;;;22.84;71.94
52719;BME280;38616;42.140;24.760;2022-08-21T04:51:02;98937.53;;;22.82;71.76
52719;BME280;38616;42.140;24.760;2022-08-21T04:53:41;98936.03;;;22.54;73.00
52719;BME280;38616;42.140;24.760;2022-08-21T04:56:12;98930.25;;;22.36;74.54
52719;BME280;38616;42.140;24.760;2022-08-21T04:58:38;98926.75;;;22.43;73.88
52719;BME280;38616;42.140;24.760;2022-08-21T05:01:09;98920.34;;;22.35;74.25
52719;BME280;38616;42.140;24.760;2022-08-21T05:03:37;98935.88;;;22.43;74.89
52719;BME280;38616;42.140;24.760;2022-08-21T05:06:05;98928.03;;;22.83;73.09
52719;BME280;38616;42.140;24.760;2022-08-21T05:08:32;98937.84;;;23.18;72.04
52719;BME280;38616;42.140;24.760;2022-08-21T05:10:59;98928.75;;;23.18;71.21
52719;BME280;38616;42.140;24.760;2022-08-21T05:13:24;98922.91;;;23.27;71.11
52719;BME280;38616;42.140;24.760;2022-08-21T05:15:50;98924.63;;;23.42;70.37
52719;BME280;38616;42.140;24.760;2022-08-21T05:18:15;98923.44;;;23.43;68.44
52719;BME280;38616;42.140;24.760;2022-08-21T05:20:41;98922.19;;;23.34;68.41
52719;BME280;38616;42.140;24.760;2022-08-21T05:23:12;98916.59;;;23.26;68.10
52719;BME280;38616;42.140;24.760;2022-08-21T05:25:38;98917.09;;;23.39;68.19
52719;BME280;38616;42.140;24.760;2022-08-21T05:28:04;98910.38;;;23.40;68.14
52719;BME280;38616;42.140;24.760;2022-08-21T05:30:30;98911.66;;;23.57;67.74
52719;BME280;38616;42.140;24.760;2022-08-21T05:32:58;98909.84;;;23.24;68.15
52719;BME280;38616;42.140;24.760;2022-08-21T05:35:23;98918.72;;;23.48;69.26
52719;BME280;38616;42.140;24.760;2022-08-21T05:37:52;98918.69;;;23.44;69.02
52719;BME280;38616;42.140;24.760;2022-08-21T05:40:18;98921.50;;;23.48;69.91
52719;BME280;38616;42.140;24.760;2022-08-21T05:42:44;98918.44;;;23.60;68.96
52719;BME280;38616;42.140;24.760;2022-08-21T05:45:09;98926.97;;;23.37;69.20
52719;BME280;38616;42.140;24.760;2022-08-21T05:47:35;98928.38;;;23.20;67.15
52719;BME280;38616;42.140;24.760;2022-08-21T05:50:01;98925.19;;;23.17;67.48
52719;BME280;38616;42.140;24.760;2022-08-21T05:52:26;98927.75;;;23.34;67.53
52719;BME280;38616;42.140;24.760;2022-08-21T05:54:52;98927.41;;;23.42;68.17
52719;BME280;38616;42.140;24.760;2022-08-21T05:57:19;98926.34;;;23.61;68.33
52719;BME280;38616;42.140;24.760;2022-08-21T05:59:45;98937.41;;;23.58;69.44
52719;BME280;38616;42.140;24.760;2022-08-21T06:02:11;98935.13;;;23.67;69.49
52719;BME280;38616;42.140;24.760;2022-08-21T06:04:38;98935.13;;;23.67;69.35
52719;BME280;38616;42.140;24.760;2022-08-21T06:07:04;98943.03;;;23.65;69.12
52719;BME280;38616;42.140;24.760;2022-08-21T06:09:29;98946.16;;;23.60;69.00
52719;BME280;38616;42.140;24.760;2022-08-21T06:11:55;98943.25;;;23.45;69.37
52719;BME280;38616;42.140;24.760;2022-08-21T06:14:20;98946.84;;;23.50;70.23
52719;BME280;38616;42.140;24.760;2022-08-21T06:16:46;98951.66;;;23.56;69.45
52719;BME280;38616;42.140;24.760;2022-08-21T06:19:11;98950.81;;;23.52;69.94
52719;BME280;38616;42.140;24.760;2022-08-21T06:21:37;98947.56;;;23.39;69.64
52719;BME280;38616;42.140;24.760;2022-08-21T06:24:03;98950.81;;;23.49;69.33
52719;BME280;38616;42.140;24.760;2022-08-21T06:26:30;98944.47;;;23.48;69.66
52719;BME280;38616;42.140;24.760;2022-08-21T06:28:56;98948.81;;;23.45;70.17
52719;BME280;38616;42.140;24.760;2022-08-21T06:31:24;98945.69;;;23.51;69.85
52719;BME280;38616;42.140;24.760;2022-08-21T06:33:50;98947.34;;;23.59;69.47
52719;BME280;38616;42.140;24.760;2022-08-21T06:36:16;98939.75;;;23.52;68.91
52719;BME280;38616;42.140;24.760;2022-08-21T06:38:41;98947.69;;;23.54;69.47
52719;BME280;38616;42.140;24.760;2022-08-21T06:41:07;98941.53;;;23.30;69.03
52719;BME280;38616;42.140;24.760;2022-08-21T06:43:33;98933.25;;;22.54;71.17
52719;BME280;38616;42.140;24.760;2022-08-21T06:45:59;98935.94;;;22.81;71.17
52719;BME280;38616;42.140;24.760;2022-08-21T06:48:24;98940.56;;;22.73;71.49
52719;BME280;38616;42.140;24.760;2022-08-21T06:50:50;98931.47;;;23.11;69.53
52719;BME280;38616;42.140;24.760;2022-08-21T06:53:19;98923.78;;;23.35;69.77
52719;BME280;38616;42.140;24.760;2022-08-21T06:55:46;98921.09;;;23.45;69.82
52719;BME280;38616;42.140;24.760;2022-08-21T06:58:12;98917.84;;;23.33;70.07
52719;BME280;38616;42.140;24.760;2022-08-21T07:00:40;98923.06;;;23.45;68.88
52719;BME280;38616;42.140;24.760;2022-08-21T07:03:06;98920.13;;;23.75;66.07
52719;BME280;38616;42.140;24.760;2022-08-21T07:05:32;98911.50;;;23.95;65.87
52719;BME280;38616;42.140;24.760;2022-08-21T07:07:57;98923.09;;;23.49;65.86
52719;BME280;38616;42.140;24.760;2022-08-21T07:10:27;98913.25;;;23.10;68.66
52719;BME280;38616;42.140;24.760;2022-08-21T07:12:53;98902.25;;;23.21;67.79
52719;BME280;38616;42.140;24.760;2022-08-21T07:15:20;98908.81;;;23.46;67.00
52719;BME280;38616;42.140;24.760;2022-08-21T07:17:45;98913.44;;;23.28;67.68
52719;BME280;38616;42.140;24.760;2022-08-21T07:20:11;98914.88;;;23.14;68.53
52719;BME280;38616;42.140;24.760;2022-08-21T07:22:37;98926.97;;;23.37;68.04
52719;BME280;38616;42.140;24.760;2022-08-21T07:25:05;98916.88;;;23.17;68.80
52719;BME280;38616;42.140;24.760;2022-08-21T07:27:31;98913.88;;;22.92;71.02
52719;BME280;38616;42.140;24.760;2022-08-21T07:29:57;98910.69;;;23.31;69.84
52719;BME280;38616;42.140;24.760;2022-08-21T07:32:23;98912.66;;;23.31;69.23
52719;BME280;38616;42.140;24.760;2022-08-21T07:34:49;98914.38;;;23.46;68.29
52719;BME280;38616;42.140;24.760;2022-08-21T07:37:14;98909.53;;;23.36;68.55
52719;BME280;38616;42.140;24.760;2022-08-21T07:39:40;98899.50;;;23.73;67.87
52719;BME280;38616;42.140;24.760;2022-08-21T07:42:05;98894.72;;;23.66;67.10
52719;BME280;38616;42.140;24.760;2022-08-21T07:44:31;98894.44;;;23.26;68.91
52719;BME280;38616;42.140;24.760;2022-08-21T07:46:57;98900.28;;;23.21;69.45
52719;BME280;38616;42.140;24.760;2022-08-21T07:49:22;98899.94;;;23.23;68.88
52719;BME280;38616;42.140;24.760;2022-08-21T07:51:48;98900.25;;;23.17;68.85
52719;BME280;38616;42.140;24.760;2022-08-21T07:54:13;98902.13;;;23.06;69.75
52719;BME280;38616;42.140;24.760;2022-08-21T07:56:39;98905.94;;;23.32;69.48
52719;BME280;38616;42.140;24.760;2022-08-21T07:59:04;98909.25;;;23.49;68.75
52719;BME280;38616;42.140;24.760;2022-08-21T08:01:30;98916.78;;;23.52;67.85
52719;BME280;38616;42.140;24.760;2022-08-21T08:03:56;98902.69;;;23.75;67.19
52719;BME280;38616;42.140;24.760;2022-08-21T08:06:22;98912.25;;;23.85;67.13
52719;BME280;38616;42.140;24.760;2022-08-21T08:08:48;98907.41;;;23.71;67.38
52719;BME280;38616;42.140;24.760;2022-08-21T08:11:16;98911.19;;;23.48;67.70
52719;BME280;38616;42.140;24.760;2022-08-21T08:13:50;98907.47;;;23.26;68.37
52719;BME280;38616;42.140;24.760;2022-08-21T08:16:17;98904.00;;;22.53;71.48
52719;BME280;38616;42.140;24.760;2022-08-21T08:18:43;98899.44;;;22.38;73.33
52719;BME280;38616;42.140;24.760;2022-08-21T08:21:10;98893.78;;;22.27;72.76
52719;BME280;38616;42.140;24.760;2022-08-21T08:23:37;98888.03;;;22.43;72.06
52719;BME280;38616;42.140;24.760;2022-08-21T08:26:03;98898.94;;;23.04;69.95
52719;BME280;38616;42.140;24.760;2022-08-21T08:28:29;98905.97;;;23.36;68.30
52719;BME280;38616;42.140;24.760;2022-08-21T08:30:56;98899.03;;;23.60;68.37
52719;BME280;38616;42.140;24.760;2022-08-21T08:33:22;98890.81;;;23.74;67.26
52719;BME280;38616;42.140;24.760;2022-08-21T08:35:49;98890.72;;;22.70;70.71
52719;BME280;38616;42.140;24.760;2022-08-21T08:38:17;98883.88;;;22.60;71.65
52719;BME280;38616;42.140;24.760;2022-08-21T08:41:10;98882.56;;;22.84;71.05
52719;BME280;38616;42.140;24.760;2022-08-21T08:43:39;98888.63;;;23.01;70.78
52719;BME280;38616;42.140;24.760;2022-08-21T08:46:14;98885.88;;;22.60;72.11
52719;BME280;38616;42.140;24.760;2022-08-21T08:48:55;98882.94;;;22.45;72.93
52719;BME280;38616;42.140;24.760;2022-08-21T08:54:33;98877.88;;;22.51;72.72
52719;BME280;38616;42.140;24.760;2022-08-21T08:57:02;98878.47;;;22.71;72.18
52719;BME280;38616;42.140;24.760;2022-08-21T08:59:37;98865.06;;;22.77;70.95
52719;BME280;38616;42.140;24.760;2022-08-21T09:02:04;98868.66;;;22.81;70.70
52719;BME280;38616;42.140;24.760;2022-08-21T09:04:31;98867.19;;;22.91;70.14
52719;BME280;38616;42.140;24.760;2022-08-21T09:09:34;98874.63;;;23.24;67.16
52719;BME280;38616;42.140;24.760;2022-08-21T09:12:14;98869.22;;;23.42;67.16
52719;BME280;38616;42.140;24.760;2022-08-21T09:14:54;98853.50;;;23.65;66.49
52719;BME280;38616;42.140;24.760;2022-08-21T09:23:18;98852.56;;;23.42;66.47
52719;BME280;38616;42.140;24.760;2022-08-21T09:26:13;98846.97;;;23.35;67.03
52719;BME280;38616;42.140;24.760;2022-08-21T09:28:39;98843.13;;;23.51;66.37
52719;BME280;38616;42.140;24.760;2022-08-21T09:31:35;98846.50;;;23.89;65.85
52719;BME280;38616;42.140;24.760;2022-08-21T09:34:09;98837.34;;;23.81;65.85
52719;BME280;38616;42.140;24.760;2022-08-21T09:36:47;98839.72;;;23.75;66.23
52719;BME280;38616;42.140;24.760;2022-08-21T09:42:02;98820.34;;;23.83;63.83
52719;BME280;38616;42.140;24.760;2022-08-21T09:44:34;98831.03;;;23.81;64.09
52719;BME280;38616;42.140;24.760;2022-08-21T09:47:04;98829.31;;;23.58;65.78
52719;BME280;38616;42.140;24.760;2022-08-21T09:49:32;98813.91;;;23.68;65.11
52719;BME280;38616;42.140;24.760;2022-08-21T09:51:59;98819.56;;;23.93;64.54
52719;BME280;38616;42.140;24.760;2022-08-21T09:54:32;98822.16;;;24.53;62.92
52719;BME280;38616;42.140;24.760;2022-08-21T09:57:01;98828.94;;;24.70;62.57
52719;BME280;38616;42.140;24.760;2022-08-21T09:59:55;98829.75;;;24.81;62.20
52719;BME280;38616;42.140;24.760;2022-08-21T10:02:33;98833.31;;;25.07;61.71
52719;BME280;38616;42.140;24.760;2022-08-21T10:05:17;98842.03;;;25.27;61.38
52719;BME280;38616;42.140;24.760;2022-08-21T10:07:43;98835.69;;;25.19;61.05
52719;BME280;38616;42.140;24.760;2022-08-21T10:10:16;98842.03;;;25.38;61.24
52719;BME280;38616;42.140;24.760;2022-08-21T10:13:17;98836.06;;;25.43;61.24
52719;BME280;38616;42.140;24.760;2022-08-21T10:18:46;98834.53;;;24.95;62.19
52719;BME280;38616;42.140;24.760;2022-08-21T10:24:33;98828.91;;;24.55;64.17
52719;BME280;38616;42.140;24.760;2022-08-21T10:27:39;98831.63;;;24.23;65.45
52719;BME280;38616;42.140;24.760;2022-08-21T10:30:07;98834.91;;;23.65;67.98
52719;BME280;38616;42.140;24.760;2022-08-21T10:35:46;98838.03;;;23.60;68.75
52719;BME280;38616;42.140;24.760;2022-08-21T10:44:35;98845.66;;;23.78;69.05
52719;BME280;38616;42.140;24.760;2022-08-21T10:50:25;98844.63;;;23.41;69.82
52719;BME280;38616;42.140;24.760;2022-08-21T10:56:02;98840.56;;;23.24;71.36
52719;BME280;38616;42.140;24.760;2022-08-21T10:58:37;98851.84;;;23.04;71.84
52719;BME280;38616;42.140;24.760;2022-08-21T11:01:16;98855.44;;;23.05;72.42
52719;BME280;38616;42.140;24.760;2022-08-21T11:03:46;98854.63;;;23.00;71.66
52719;BME280;38616;42.140;24.760;2022-08-21T11:06:23;98856.41;;;22.78;72.37
52719;BME280;38616;42.140;24.760;2022-08-21T11:08:52;98845.97;;;22.64;73.39
52719;BME280;38616;42.140;24.760;2022-08-21T11:11:34;98853.31;;;22.87;72.65
52719;BME280;38616;42.140;24.760;2022-08-21T11:14:13;98849.09;;;23.04;71.62
52719;BME280;38616;42.140;24.760;2022-08-21T11:16:44;98846.91;;;23.24;71.49
52719;BME280;38616;42.140;24.760;2022-08-21T11:19:17;98841.31;;;23.21;71.14
52719;BME280;38616;42.140;24.760;2022-08-21T11:21:51;98837.13;;;23.41;70.42
52719;BME280;38616;42.140;24.760;2022-08-21T11:27:05;98822.09;;;24.16;67.14
52719;BME280;38616;42.140;24.760;2022-08-21T11:29:38;98827.47;;;23.84;68.26
52719;BME280;38616;42.140;24.760;2022-08-21T11:35:12;98826.38;;;24.07;67.58
52719;BME280;38616;42.140;24.760;2022-08-21T11:43:39;98833.13;;;24.05;67.71
52719;BME280;38616;42.140;24.760;2022-08-21T11:52:07;98809.41;;;24.26;66.48
52719;BME280;38616;42.140;24.760;2022-08-21T11:54:46;98808.28;;;24.60;65.91
52719;BME280;38616;42.140;24.760;2022-08-21T11:57:21;98806.34;;;24.89;65.50
52719;BME280;38616;42.140;24.760;2022-08-21T12:00:04;98811.84;;;24.53;65.23
52719;BME280;38616;42.140;24.760;2022-08-21T12:02:38;98808.66;;;24.47;65.02
52719;BME280;38616;42.140;24.760;2022-08-21T12:05:09;98807.88;;;24.40;65.88
52719;BME280;38616;42.140;24.760;2022-08-21T12:07:42;98806.28;;;24.39;65.58
52719;BME280;38616;42.140;24.760;2022-08-21T12:10:18;98801.44;;;24.14;66.31
52719;BME280;38616;42.140;24.760;2022-08-21T12:12:46;98804.66;;;24.19;66.91
52719;BME280;38616;42.140;24.760;2022-08-21T12:18:07;98793.59;;;24.38;66.75
52719;BME280;38616;42.140;24.760;2022-08-21T12:20:58;98787.19;;;24.15;67.14
52719;BME280;38616;42.140;24.760;2022-08-21T12:26:27;98780.13;;;24.54;65.99
52719;BME280;38616;42.140;24.760;2022-08-21T12:29:14;98780.78;;;24.00;66.54
52719;BME280;38616;42.140;24.760;2022-08-21T12:31:49;98775.56;;;23.88;67.80
52719;BME280;38616;42.140;24.760;2022-08-21T12:34:16;98778.34;;;23.88;67.77
52719;BME280;38616;42.140;24.760;2022-08-21T12:36:46;98780.78;;;24.00;67.20
52719;BME280;38616;42.140;24.760;2022-08-21T12:39:19;98772.03;;;23.98;67.03
52719;BME280;38616;42.140;24.760;2022-08-21T12:41:50;98768.91;;;24.00;65.83
52719;BME280;38616;42.140;24.760;2022-08-21T12:44:23;98760.22;;;24.09;66.19
52719;BME280;38616;42.140;24.760;2022-08-21T12:46:58;98766.44;;;23.76;67.70
52719;BME280;38616;42.140;24.760;2022-08-21T12:49:49;98772.78;;;23.81;67.89
52719;BME280;38616;42.140;24.760;2022-08-21T12:52:30;98753.50;;;24.17;67.11
52719;BME280;38616;42.140;24.760;2022-08-21T12:54:57;98741.25;;;24.58;65.58
52719;BME280;38616;42.140;24.760;2022-08-21T12:57:28;98761.09;;;24.42;65.95
52719;BME280;38616;42.140;24.760;2022-08-21T13:00:03;98748.25;;;23.97;67.17
52719;BME280;38616;42.140;24.760;2022-08-21T13:02:36;98743.88;;;23.85;67.14
52719;BME280;38616;42.140;24.760;2022-08-21T13:05:11;98745.59;;;24.30;66.64
52719;BME280;38616;42.140;24.760;2022-08-21T13:07:37;98742.84;;;24.55;65.37
52719;BME280;38616;42.140;24.760;2022-08-21T13:10:26;98748.41;;;24.77;64.66
52719;BME280;38616;42.140;24.760;2022-08-21T13:13:04;98745.22;;;25.11;63.43
52719;BME280;38616;42.140;24.760;2022-08-21T13:15:34;98749.94;;;25.29;62.89
52719;BME280;38616;42.140;24.760;2022-08-21T13:18:01;98738.09;;;24.81;63.95
52719;BME280;38616;42.140;24.760;2022-08-21T13:20:35;98752.34;;;24.43;65.34
52719;BME280;38616;42.140;24.760;2022-08-21T13:23:02;98748.41;;;24.62;65.33
52719;BME280;38616;42.140;24.760;2022-08-21T13:25:34;98746.00;;;24.35;65.17
52719;BME280;38616;42.140;24.760;2022-08-21T13:28:07;98744.81;;;24.40;65.54
52719;BME280;38616;42.140;24.760;2022-08-21T13:30:34;98743.66;;;24.74;64.08
52719;BME280;38616;42.140;24.760;2022-08-21T13:33:05;98747.19;;;24.38;64.37
52719;BME280;38616;42.140;24.760;2022-08-21T13:35:44;98743.22;;;24.54;64.33
52719;BME280;38616;42.140;24.760;2022-08-21T13:38:11;98738.91;;;24.82;64.07
52719;BME280;38616;42.140;24.760;2022-08-21T13:40:48;98743.56;;;25.39;62.87
52719;BME280;38616;42.140;24.760;2022-08-21T13:43:17;98737.84;;;25.82;62.71
52719;BME280;38616;42.140;24.760;2022-08-21T13:45:48;98740.38;;;25.51;62.75
52719;BME280;38616;42.140;24.760;2022-08-21T13:48:14;98737.59;;;25.37;63.33
52719;BME280;38616;42.140;24.760;2022-08-21T13:50:41;98743.59;;;25.17;63.84
52719;BME280;38616;42.140;24.760;2022-08-21T13:53:33;98731.25;;;25.40;62.99
52719;BME280;38616;42.140;24.760;2022-08-21T13:56:00;98730.06;;;25.30;62.63
52719;BME280;38616;42.140;24.760;2022-08-21T13:58:30;98733.34;;;24.82;63.34
52719;BME280;38616;42.140;24.760;2022-08-21T14:00:58;98736.13;;;24.74;64.06